Time,TemperatureF,DewpointF,PressureIn,WindDirection,WindDirectionDegrees,WindSpeedMPH,WindSpeedGustMPH,Humidity,HourlyPrecipIn,Conditions,Clouds,dailyrainin,SoftwareType,DateUTC
2013-04-18 00:01:00,25.5,24.0,29.91,ESE,112,2.9,2.9,94,0.00,,---,0.00,VWS V14.01,2013-04-18 06:01:00,
2013-04-18 00:16:00,25.7,23.7,29.88,ESE,112,2.9,2.9,92,0.00,,---,0.00,VWS V14.01,2013-04-18 06:16:00,
2013-04-18 00:31:00,25.9,23.6,29.91,ESE,112,2.9,2.9,91,0.00,,---,0.00,VWS V14.01,2013-04-18 06:31:00,
2013-04-18 00:46:00,25.7,23.7,29.91,ESE,112,2.9,2.9,92,0.00,,---,0.00,VWS V14.01,2013-04-18 06:46:00,
2013-04-18 01:01:00,25.7,23.4,29.91,ESE,112,2.9,2.9,91,0.00,,---,0.00,VWS V14.01,2013-04-18 07:01:00,
2013-04-18 01:16:00,25.3,23.6,29.88,ESE,112,2.9,2.9,93,0.00,,---,0.00,VWS V14.01,2013-04-18 07:16:00,
2013-04-18 01:31:00,25.0,23.5,29.88,ESE,112,2.9,2.9,94,0.00,,---,0.00,VWS V14.01,2013-04-18 07:31:00,
2013-04-18 01:46:00,24.1,22.6,29.85,ESE,112,2.9,2.9,94,0.00,,---,0.00,VWS V14.01,2013-04-18 07:46:00,
2013-04-18 02:01:00,23.7,22.5,29.85,ESE,112,2.9,2.9,95,0.00,,---,0.00,VWS V14.01,2013-04-18 08:01:00,
2013-04-18 02:16:00,23.7,22.8,29.85,ESE,112,2.9,2.9,96,0.00,,---,0.00,VWS V14.01,2013-04-18 08:16:00,
2013-04-18 02:31:00,23.5,22.6,29.88,ESE,112,2.9,2.9,96,0.00,,---,0.00,VWS V14.01,2013-04-18 08:31:00,
2013-04-18 02:46:00,23.4,22.4,29.88,ESE,112,2.9,2.9,96,0.00,,---,0.00,VWS V14.01,2013-04-18 08:46:00,
2013-04-18 03:01:00,22.8,21.6,29.88,ESE,112,2.9,2.9,95,0.00,,---,0.00,VWS V14.01,2013-04-18 09:01:00,
2013-04-18 03:16:00,22.8,21.6,29.91,ESE,112,2.9,2.9,95,0.00,,---,0.00,VWS V14.01,2013-04-18 09:16:00,
2013-04-18 03:31:00,22.6,21.4,29.91,ESE,112,2.9,2.9,95,0.00,,---,0.00,VWS V14.01,2013-04-18 09:31:00,
2013-04-18 03:46:00,22.5,21.0,29.88,ESE,112,2.9,2.9,94,0.00,,---,0.00,VWS V14.01,2013-04-18 09:46:00,
2013-04-18 04:01:00,22.5,20.8,29.88,ESE,112,2.9,2.9,93,0.00,,---,0.00,VWS V14.01,2013-04-18 10:01:00,
2013-04-18 04:16:00,22.3,20.6,29.85,ESE,112,2.9,2.9,93,0.00,,---,0.00,VWS V14.01,2013-04-18 10:16:00,
2013-04-18 04:31:00,22.1,20.6,29.85,ESE,112,2.9,2.9,94,0.00,,---,0.00,VWS V14.01,2013-04-18 10:31:00,
2013-04-18 04:46:00,22.1,20.9,29.85,ESE,112,2.9,2.9,95,0.00,,---,0.00,VWS V14.01,2013-04-18 10:46:00,
2013-04-18 05:01:00,21.9,20.7,29.85,ESE,112,2.9,2.9,95,0.00,,---,0.00,VWS V14.01,2013-04-18 11:01:00,
2013-04-18 05:16:00,21.9,20.7,29.82,ESE,112,2.9,2.9,95,0.00,,---,0.00,VWS V14.01,2013-04-18 11:16:00,
2013-04-18 05:31:00,21.9,20.7,29.85,ESE,112,2.9,2.9,95,0.00,,---,0.00,VWS V14.01,2013-04-18 11:31:00,
2013-04-18 05:46:00,22.1,20.6,29.85,ESE,112,2.9,2.9,94,0.00,,---,0.00,VWS V14.01,2013-04-18 11:46:00,
2013-04-18 06:01:00,22.6,18.0,29.85,ESE,112,2.9,2.9,82,0.00,,---,0.00,VWS V14.01,2013-04-18 12:01:00,
2013-04-18 06:16:00,23.2,14.2,29.85,ESE,112,2.9,2.9,68,0.00,,---,0.00,VWS V14.01,2013-04-18 12:16:00,
2013-04-18 06:31:00,23.0,15.0,29.85,ESE,112,2.9,2.9,71,0.00,,---,0.00,VWS V14.01,2013-04-18 12:31:00,
2013-04-18 06:46:00,23.0,16.3,29.82,ESE,112,2.9,2.9,75,0.00,,---,0.00,VWS V14.01,2013-04-18 12:46:00,
2013-04-18 07:01:00,23.2,16.5,29.85,ESE,112,2.9,2.9,75,0.00,,---,0.00,VWS V14.01,2013-04-18 13:01:00,
2013-04-18 07:16:00,23.5,16.5,29.85,ESE,112,2.9,2.9,74,0.00,,---,0.00,VWS V14.01,2013-04-18 13:16:00,
2013-04-18 07:31:00,23.9,15.9,29.82,ESE,112,2.9,2.9,71,0.00,,---,0.00,VWS V14.01,2013-04-18 13:31:00,
2013-04-18 07:46:00,24.4,16.1,29.82,ESE,112,2.9,2.9,70,0.00,,---,0.00,VWS V14.01,2013-04-18 13:46:00,
2013-04-18 08:01:00,25.3,15.9,29.82,ESE,112,2.9,2.9,67,0.00,,---,0.00,VWS V14.01,2013-04-18 14:01:00,
2013-04-18 08:16:00,26.6,15.7,29.82,ESE,112,2.9,2.9,63,0.00,,---,0.00,VWS V14.01,2013-04-18 14:16:00,
2013-04-18 08:31:00,27.7,15.2,29.82,ESE,112,2.9,2.9,59,0.00,,---,0.00,VWS V14.01,2013-04-18 14:31:00,
2013-04-18 08:46:00,28.6,15.3,29.79,ESE,112,2.9,2.9,57,0.00,,---,0.00,VWS V14.01,2013-04-18 14:46:00,
2013-04-18 09:01:00,29.1,15.4,29.79,ESE,112,2.9,2.9,56,0.00,,---,0.00,VWS V14.01,2013-04-18 15:01:00,
2013-04-18 09:16:00,29.8,15.7,29.79,ESE,112,2.9,2.9,55,0.00,,---,0.00,VWS V14.01,2013-04-18 15:16:00,
2013-04-18 09:31:00,31.8,16.6,29.79,ESE,112,2.9,2.9,53,0.00,,---,0.00,VWS V14.01,2013-04-18 15:31:00,
2013-04-18 09:46:00,32.5,16.4,29.79,ESE,112,2.9,2.9,51,0.00,,---,0.00,VWS V14.01,2013-04-18 15:46:00,
2013-04-18 10:01:00,32.7,16.1,29.79,ESE,112,2.9,2.9,50,0.00,,---,0.00,VWS V14.01,2013-04-18 16:01:00,
2013-04-18 10:16:00,32.5,15.5,29.79,ESE,112,2.9,2.9,49,0.00,,---,0.00,VWS V14.01,2013-04-18 16:16:00,
2013-04-18 10:31:00,34.3,17.2,29.82,ESE,112,2.9,2.9,49,0.00,,---,0.00,VWS V14.01,2013-04-18 16:31:00,
2013-04-18 10:46:00,37.0,19.2,29.82,ESE,112,2.9,2.9,48,0.00,,---,0.00,VWS V14.01,2013-04-18 16:46:00,
2013-04-18 11:01:00,38.1,19.2,29.82,ESE,112,2.9,2.9,46,0.00,,---,0.00,VWS V14.01,2013-04-18 17:01:00,
2013-04-18 11:16:00,39.7,20.1,29.82,ESE,112,2.9,2.9,45,0.00,,---,0.00,VWS V14.01,2013-04-18 17:16:00,
2013-04-18 11:31:00,41.0,20.8,29.82,ESE,112,2.9,2.9,44,0.03,,---,0.03,VWS V14.01,2013-04-18 17:31:00,
2013-04-18 11:46:00,42.8,22.4,29.82,ESE,112,2.9,2.9,44,0.03,,---,0.03,VWS V14.01,2013-04-18 17:46:00,
2013-04-18 12:01:00,43.0,22.0,29.82,ESE,112,2.9,2.9,43,0.03,,---,0.03,VWS V14.01,2013-04-18 18:01:00,
2013-04-18 12:16:00,44.1,23.0,29.82,ESE,112,2.9,2.9,43,0.03,,---,0.03,VWS V14.01,2013-04-18 18:16:00,
2013-04-18 12:31:00,44.4,21.6,29.82,ESE,112,2.9,2.9,40,0.08,,---,0.08,VWS V14.01,2013-04-18 18:31:00,
2013-04-18 12:46:00,44.2,21.5,29.82,ESE,112,2.9,2.9,40,0.05,,---,0.08,VWS V14.01,2013-04-18 18:46:00,
2013-04-18 13:01:00,43.9,19.9,29.82,ESE,112,2.9,2.9,38,0.09,,---,0.12,VWS V14.01,2013-04-18 19:01:00,
2013-04-18 13:16:00,46.4,21.6,29.82,ESE,112,2.9,2.9,37,0.09,,---,0.12,VWS V14.01,2013-04-18 19:16:00,
2013-04-18 13:31:00,45.7,20.9,29.82,ESE,112,2.9,2.9,37,0.13,,---,0.16,VWS V14.01,2013-04-18 19:31:00,
2013-04-18 14:01:00,46.9,22.0,29.82,ESE,112,2.9,2.9,37,0.12,,---,0.20,VWS V14.01,2013-04-18 20:01:00,
2013-04-18 14:16:00,46.6,21.7,29.82,ESE,112,2.9,2.9,37,0.08,,---,0.20,VWS V14.01,2013-04-18 20:16:00,
2013-04-18 14:31:00,48.6,24.7,29.82,ESE,112,2.9,2.9,39,0.08,,---,0.20,VWS V14.01,2013-04-18 20:31:00,
2013-04-18 14:46:00,48.9,23.2,29.79,ESE,112,2.9,2.9,36,0.08,,---,0.24,VWS V14.01,2013-04-18 20:46:00,
2013-04-18 15:01:00,49.6,23.8,29.79,ESE,112,2.9,2.9,36,0.04,,---,0.24,VWS V14.01,2013-04-18 21:01:00,
2013-04-18 15:16:00,46.9,22.0,29.82,ESE,112,2.9,2.9,37,0.04,,---,0.24,VWS V14.01,2013-04-18 21:16:00,
2013-04-18 15:31:00,46.6,21.7,29.79,ESE,112,2.9,2.9,37,0.04,,---,0.24,VWS V14.01,2013-04-18 21:31:00,
2013-04-18 15:46:00,45.5,20.8,29.79,ESE,112,2.9,2.9,37,0.04,,---,0.24,VWS V14.01,2013-04-18 21:46:00,
2013-04-18 16:01:00,45.5,20.8,29.79,NNW,338,5.8,5.8,37,0.00,,---,0.24,VWS V14.01,2013-04-18 22:01:00,
2013-04-18 16:16:00,45.5,20.8,29.79,North,0,6.0,6.0,37,0.00,,---,0.24,VWS V14.01,2013-04-18 22:16:00,
2013-04-18 16:31:00,44.8,20.1,29.79,NNW,338,7.4,7.4,37,0.00,,---,0.24,VWS V14.01,2013-04-18 22:31:00,
2013-04-18 16:46:00,44.4,20.4,29.76,NE,45,6.3,7.4,38,0.00,,---,0.24,VWS V14.01,2013-04-18 22:46:00,
2013-04-18 17:01:00,45.1,20.4,29.79,NE,45,5.6,6.3,37,0.00,,---,0.24,VWS V14.01,2013-04-18 23:01:00,
2013-04-18 17:16:00,44.4,21.6,29.79,SSW,202,3.8,5.6,40,0.00,,---,0.24,VWS V14.01,2013-04-18 23:16:00,
2013-04-18 17:31:00,43.7,22.7,29.79,NW,315,5.6,5.6,43,0.00,,---,0.24,VWS V14.01,2013-04-18 23:31:00,
2013-04-18 17:46:00,43.0,22.0,29.79,North,0,7.2,7.2,43,0.00,,---,0.24,VWS V14.01,2013-04-18 23:46:00,
2013-04-18 18:01:00,43.5,22.5,29.76,North,0,7.2,7.2,43,0.00,,---,0.24,VWS V14.01,2013-04-19 00:01:00,
2013-04-18 18:16:00,41.7,19.8,29.79,North,0,7.2,7.2,41,0.00,,---,0.24,VWS V14.01,2013-04-19 00:16:00,
2013-04-18 18:31:00,41.0,20.2,29.79,North,0,7.2,7.2,43,0.00,,---,0.24,VWS V14.01,2013-04-19 00:31:00,
2013-04-18 18:46:00,41.0,20.8,29.79,North,0,7.2,7.2,44,0.00,,---,0.24,VWS V14.01,2013-04-19 00:46:00,
2013-04-18 19:01:00,39.2,19.7,29.79,North,0,7.2,7.2,45,0.00,,---,0.24,VWS V14.01,2013-04-19 01:01:00,
2013-04-18 19:16:00,35.2,18.9,29.79,North,0,7.2,7.2,51,0.00,,---,0.24,VWS V14.01,2013-04-19 01:16:00,
2013-04-18 19:31:00,34.3,19.0,29.79,North,0,7.2,7.2,53,0.00,,---,0.24,VWS V14.01,2013-04-19 01:31:00,
2013-04-18 19:46:00,33.6,18.8,29.79,North,0,7.2,7.2,54,0.00,,---,0.24,VWS V14.01,2013-04-19 01:46:00,
2013-04-18 20:01:00,33.6,18.3,29.76,North,0,7.2,7.2,53,0.00,,---,0.24,VWS V14.01,2013-04-19 02:01:00,
2013-04-18 20:16:00,32.4,17.1,29.76,North,0,7.2,7.2,53,0.00,,---,0.24,VWS V14.01,2013-04-19 02:16:00,
2013-04-18 20:31:00,30.6,15.9,29.76,North,0,7.2,7.2,54,0.00,,---,0.24,VWS V14.01,2013-04-19 02:31:00,
2013-04-18 20:46:00,28.9,15.2,29.79,North,0,7.2,7.2,56,0.00,,---,0.24,VWS V14.01,2013-04-19 02:46:00,
2013-04-18 21:01:00,27.3,14.1,29.76,North,0,7.2,7.2,57,0.00,,---,0.24,VWS V14.01,2013-04-19 03:01:00,
2013-04-18 21:16:00,26.1,13.7,29.76,North,0,7.2,7.2,59,0.00,,---,0.24,VWS V14.01,2013-04-19 03:16:00,
2013-04-18 21:46:00,24.4,12.9,29.76,North,0,7.2,7.2,61,0.00,,---,0.24,VWS V14.01,2013-04-19 03:46:00,
2013-04-18 22:01:00,24.1,13.0,29.74,North,0,7.2,7.2,62,0.00,,---,0.24,VWS V14.01,2013-04-19 04:01:00,
2013-04-18 22:16:00,23.7,12.6,29.74,North,0,7.2,7.2,62,0.00,,---,0.24,VWS V14.01,2013-04-19 04:16:00,
2013-04-18 22:31:00,24.1,13.3,29.74,North,0,7.2,7.2,63,0.00,,---,0.24,VWS V14.01,2013-04-19 04:31:00,
2013-04-18 22:46:00,23.7,13.3,29.71,North,0,7.2,7.2,64,0.00,,---,0.24,VWS V14.01,2013-04-19 04:46:00,
2013-04-18 23:01:00,22.8,12.5,29.74,North,0,7.2,7.2,64,0.00,,---,0.24,VWS V14.01,2013-04-19 05:01:00,
2013-04-18 23:16:00,22.3,12.3,29.74,North,0,7.2,7.2,65,0.00,,---,0.24,VWS V14.01,2013-04-19 05:16:00,
2013-04-18 23:31:00,22.5,12.8,29.71,North,0,7.2,7.2,66,0.00,,---,0.24,VWS V14.01,2013-04-19 05:31:00,
2013-04-18 23:46:00,22.8,13.2,29.74,North,0,7.2,7.2,66,0.00,,---,0.24,VWS V14.01,2013-04-19 05:46:00,